Time;durP1;ratioP1;P1;durP2;ratioP2;P2;SDS_P1;SDS_P2;PMS_P1;PMS_P2;Temp;Humidity;BMP_temperature;BMP_pressure;BME280_temperature;BME280_humidity;BME280_pressure;Samples;Min_cycle;Max_cycle;Signal;HPM_P1;HPM_P2
2022/11/30 00:01:19;;;;;;;28.07;16.73;;;;;;;;;;6586247;28;20179;-90
2022/11/30 00:04:29;;;;;;;29.73;17.63;;;;;;;;;;6595853;28;20181;-89
2022/11/30 00:07:40;;;;;;;28.40;17.87;;;;;;;;;;6596367;28;20175;-90
2022/11/30 00:10:50;;;;;;;28.07;16.23;;;;;;;;;;6595197;28;20200;-90
2022/11/30 00:14:00;;;;;;;24.27;16.07;;;;;;;;;;6594773;28;20179;-90
2022/11/30 00:17:11;;;;;;;26.27;15.53;;;;;;;;;;6594791;28;20199;-90
2022/11/30 00:20:21;;;;;;;18.93;12.07;;;;;;;;;;6586256;28;20259;-90
2022/11/30 00:23:32;;;;;;;22.43;14.23;;;;;;;;;;6595658;28;20645;-90
2022/11/30 00:26:43;;;;;;;17.87;11.77;;;;;;;;;;6595928;28;20226;-90
2022/11/30 00:29:53;;;;;;;21.63;12.70;;;;;;;;;;6594606;28;20176;-90
2022/11/30 00:33:03;;;;;;;21.87;14.03;;;;;;;;;;6619549;28;20246;-90
2022/11/30 00:36:15;;;;;;;22.23;13.83;;;;;;;;;;6603336;28;20212;-90
2022/11/30 00:39:25;;;;;;;20.37;12.93;;;;;;;;;;6622923;28;20179;-90
2022/11/30 00:42:37;;;;;;;16.83;11.73;;;;;;;;;;6622145;28;20205;-89
2022/11/30 00:45:47;;;;;;;20.07;12.60;;;;;;;;;;6605213;28;20194;-89
2022/11/30 00:48:57;;;;;;;13.83;8.80;;;;;;;;;;6622258;28;20176;-89
2022/11/30 00:52:08;;;;;;;18.27;12.83;;;;;;;;;;6622494;28;20204;-89
2022/11/30 00:55:19;;;;;;;19.17;12.50;;;;;;;;;;6604145;28;20573;-89
2022/11/30 00:58:29;;;;;;;17.70;12.10;;;;;;;;;;6604242;28;20190;-89
2022/11/30 01:01:39;;;;;;;18.63;11.30;;;;;;;;;;6604182;28;20186;-90
2022/11/30 01:04:49;;;;;;;19.53;13.47;;;;;;;;;;6604185;28;20175;-90
2022/11/30 01:08:00;;;;;;;16.07;10.93;;;;;;;;;;6604512;28;20176;-90
2022/11/30 01:11:13;;;;;;;19.47;13.40;;;;;;;;;;6604353;28;20171;-90
2022/11/30 01:14:24;;;;;;;22.83;13.50;;;;;;;;;;6621993;28;20187;-90
2022/11/30 01:17:34;;;;;;;22.90;13.53;;;;;;;;;;6603695;28;20183;-90
2022/11/30 01:20:44;;;;;;;20.07;12.83;;;;;;;;;;6603303;28;20266;-89
2022/11/30 01:23:55;;;;;;;19.80;12.50;;;;;;;;;;6605590;28;20545;-89
2022/11/30 01:27:05;;;;;;;20.23;12.30;;;;;;;;;;6609326;28;20195;-90
2022/11/30 01:30:16;;;;;;;16.90;10.57;;;;;;;;;;6626296;28;20180;-89
2022/11/30 01:33:26;;;;;;;18.40;11.87;;;;;;;;;;6609260;28;20199;-89
2022/11/30 01:36:37;;;;;;;18.73;12.37;;;;;;;;;;6608508;28;20212;-90
2022/11/30 01:39:48;;;;;;;14.00;9.40;;;;;;;;;;6608909;28;20206;-89
2022/11/30 01:42:58;;;;;;;12.90;7.80;;;;;;;;;;6609565;28;20179;-90
2022/11/30 01:46:20;;;;;;;17.17;11.40;;;;;;;;;;6608051;28;20218;-89
2022/11/30 01:49:36;;;;;;;20.07;12.40;;;;;;;;;;6626442;28;20259;-90
2022/11/30 01:52:49;;;;;;;14.83;10.23;;;;;;;;;;6608311;28;20230;-90
2022/11/30 01:55:59;;;;;;;16.07;10.63;;;;;;;;;;6608872;28;20257;-90
2022/11/30 01:59:10;;;;;;;21.40;12.70;;;;;;;;;;6607741;28;20180;-89
2022/11/30 02:02:27;;;;;;;16.37;10.20;;;;;;;;;;6626202;28;20180;-90
2022/11/30 02:05:38;;;;;;;19.00;11.23;;;;;;;;;;6626266;28;20160;-90
2022/11/30 02:08:50;;;;;;;19.13;11.20;;;;;;;;;;6607398;28;20179;-90
2022/11/30 02:12:03;;;;;;;19.27;12.27;;;;;;;;;;6608208;28;20176;-90
2022/11/30 02:15:19;;;;;;;11.83;7.57;;;;;;;;;;6607734;28;20245;-89
2022/11/30 02:18:38;;;;;;;16.40;10.03;;;;;;;;;;6607864;28;20199;-89
2022/11/30 02:21:51;;;;;;;15.50;10.33;;;;;;;;;;6625962;28;20175;-90
2022/11/30 02:25:20;;;;;;;15.87;11.10;;;;;;;;;;6607925;28;20209;-90
2022/11/30 02:28:39;;;;;;;16.20;10.40;;;;;;;;;;6607736;28;20186;-90
2022/11/30 02:32:08;;;;;;;15.33;10.87;;;;;;;;;;6625171;28;20232;-90
2022/11/30 02:35:20;;;;;;;14.87;10.23;;;;;;;;;;6607090;28;20211;-90
2022/11/30 02:38:31;;;;;;;16.93;11.33;;;;;;;;;;6625432;28;20682;-89
2022/11/30 02:41:41;;;;;;;14.70;10.57;;;;;;;;;;6607073;28;20238;-90
2022/11/30 02:44:52;;;;;;;18.47;11.23;;;;;;;;;;6606908;28;20270;-89
2022/11/30 02:48:10;;;;;;;18.47;11.23;;;;;;;;;;6606543;28;20550;-90
2022/11/30 02:51:22;;;;;;;16.00;10.23;;;;;;;;;;6625409;28;20172;-90
2022/11/30 02:54:33;;;;;;;15.63;10.60;;;;;;;;;;6606340;28;20179;-90
2022/11/30 02:57:45;;;;;;;17.40;11.27;;;;;;;;;;6624328;28;20561;-89
2022/11/30 03:00:55;;;;;;;18.27;11.73;;;;;;;;;;6625972;28;20487;-89
2022/11/30 03:04:05;;;;;;;16.70;11.00;;;;;;;;;;6606199;28;20180;-89
2022/11/30 03:07:16;;;;;;;18.10;11.77;;;;;;;;;;6606480;28;20215;-89
2022/11/30 03:10:26;;;;;;;12.43;8.70;;;;;;;;;;6606231;28;20703;-90
2022/11/30 03:13:36;;;;;;;15.40;10.33;;;;;;;;;;6624367;28;20241;-90
2022/11/30 03:16:47;;;;;;;15.57;11.13;;;;;;;;;;6624267;28;20208;-90
2022/11/30 03:19:57;;;;;;;20.47;11.63;;;;;;;;;;6624545;28;20183;-90
2022/11/30 03:23:07;;;;;;;13.87;9.20;;;;;;;;;;6606978;28;20186;-89
2022/11/30 03:26:18;;;;;;;17.80;11.53;;;;;;;;;;6606361;28;20180;-90
2022/11/30 03:29:28;;;;;;;14.27;9.17;;;;;;;;;;6606367;28;20180;-90
2022/11/30 03:32:38;;;;;;;15.60;10.43;;;;;;;;;;6624079;28;20239;-90
2022/11/30 03:35:59;;;;;;;14.50;9.67;;;;;;;;;;6605763;28;20212;-90
2022/11/30 03:39:10;;;;;;;15.17;9.93;;;;;;;;;;6624365;28;20239;-90
2022/11/30 03:42:21;;;;;;;15.97;9.97;;;;;;;;;;6624251;28;20167;-90
2022/11/30 03:45:31;;;;;;;15.27;9.63;;;;;;;;;;6605326;28;20194;-90
2022/11/30 03:48:43;;;;;;;15.57;10.23;;;;;;;;;;6605784;28;20176;-90
2022/11/30 03:51:53;;;;;;;14.47;10.13;;;;;;;;;;6606028;28;20186;-90
2022/11/30 03:55:04;;;;;;;15.07;10.10;;;;;;;;;;6623811;28;20380;-90
2022/11/30 03:58:14;;;;;;;17.20;10.57;;;;;;;;;;6605904;28;20184;-90
2022/11/30 04:01:25;;;;;;;18.73;11.37;;;;;;;;;;6588862;28;20187;-90
2022/11/30 04:04:35;;;;;;;16.50;10.73;;;;;;;;;;6623305;28;20228;-89
2022/11/30 04:07:46;;;;;;;15.47;10.93;;;;;;;;;;6604941;28;20192;-90
2022/11/30 04:10:57;;;;;;;17.97;11.77;;;;;;;;;;6623682;28;20180;-89
2022/11/30 04:14:08;;;;;;;16.07;11.20;;;;;;;;;;6622649;28;20218;-89
2022/11/30 04:17:19;;;;;;;14.27;10.07;;;;;;;;;;6623651;28;20607;-89
2022/11/30 04:20:29;;;;;;;12.83;8.47;;;;;;;;;;6604972;28;20180;-90
2022/11/30 04:23:40;;;;;;;14.63;10.60;;;;;;;;;;6604636;28;20172;-89
2022/11/30 04:26:50;;;;;;;17.20;11.33;;;;;;;;;;6622787;28;20179;-89
2022/11/30 04:30:00;;;;;;;13.13;8.80;;;;;;;;;;6605232;28;20532;-90
2022/11/30 04:33:12;;;;;;;14.33;9.87;;;;;;;;;;6604058;28;20239;-90
2022/11/30 04:36:23;;;;;;;15.07;8.97;;;;;;;;;;6622768;28;20203;-89
2022/11/30 04:39:33;;;;;;;12.20;7.93;;;;;;;;;;6604171;28;20226;-90
2022/11/30 04:42:44;;;;;;;13.57;9.30;;;;;;;;;;6604522;28;20171;-90
2022/11/30 04:45:54;;;;;;;15.80;9.87;;;;;;;;;;6604241;28;20222;-90
2022/11/30 04:49:05;;;;;;;18.50;12.07;;;;;;;;;;6605135;28;20229;-90
2022/11/30 04:52:16;;;;;;;16.10;10.47;;;;;;;;;;6621736;28;20176;-90
2022/11/30 04:55:26;;;;;;;22.70;15.97;;;;;;;;;;6604038;28;20690;-90
2022/11/30 04:58:37;;;;;;;17.80;11.83;;;;;;;;;;6621874;28;20612;-90
2022/11/30 05:01:48;;;;;;;27.07;17.47;;;;;;;;;;6604540;28;20180;-90
2022/11/30 05:04:58;;;;;;;24.70;16.57;;;;;;;;;;6603792;28;20206;-90
2022/11/30 05:08:10;;;;;;;25.53;15.87;;;;;;;;;;6604305;28;20649;-90
2022/11/30 05:11:20;;;;;;;30.63;17.60;;;;;;;;;;6621609;28;20175;-90
2022/11/30 05:14:31;;;;;;;53.53;26.73;;;;;;;;;;6621500;28;20168;-90
2022/11/30 05:17:41;;;;;;;69.53;33.53;;;;;;;;;;6603642;28;20518;-90
2022/11/30 05:20:51;;;;;;;30.43;17.17;;;;;;;;;;6604331;28;20187;-90
2022/11/30 05:24:02;;;;;;;20.57;12.73;;;;;;;;;;6603601;28;20267;-90
2022/11/30 05:27:12;;;;;;;15.13;10.20;;;;;;;;;;6602819;28;20255;-90
2022/11/30 05:30:22;;;;;;;17.90;11.43;;;;;;;;;;6587007;28;20190;-90
2022/11/30 05:33:33;;;;;;;15.63;10.80;;;;;;;;;;6622338;28;20615;-89
2022/11/30 05:36:43;;;;;;;64.80;28.50;;;;;;;;;;6603270;28;20211;-90
2022/11/30 05:39:54;;;;;;;18.50;11.73;;;;;;;;;;6602948;28;20658;-90
2022/11/30 05:43:05;;;;;;;26.87;15.50;;;;;;;;;;6587117;28;20207;-90
2022/11/30 05:46:16;;;;;;;20.20;12.93;;;;;;;;;;6621705;28;20198;-90
2022/11/30 05:49:26;;;;;;;15.07;10.43;;;;;;;;;;6603215;28;20191;-90
2022/11/30 05:52:37;;;;;;;15.60;9.97;;;;;;;;;;6621439;28;20536;-89
2022/11/30 05:55:47;;;;;;;24.90;14.70;;;;;;;;;;6603266;28;20606;-89
2022/11/30 05:58:57;;;;;;;26.57;14.90;;;;;;;;;;6603212;28;20233;-90
2022/11/30 06:02:08;;;;;;;83.13;37.83;;;;;;;;;;6621911;28;20172;-90
2022/11/30 06:05:18;;;;;;;35.17;21.10;;;;;;;;;;6603471;28;20178;-90
2022/11/30 06:08:28;;;;;;;32.17;19.40;;;;;;;;;;6621520;28;20172;-90
2022/11/30 06:11:40;;;;;;;15.57;11.13;;;;;;;;;;6607243;28;20172;-90
2022/11/30 06:14:50;;;;;;;15.27;10.67;;;;;;;;;;6626374;28;20191;-90
2022/11/30 06:18:00;;;;;;;20.00;13.47;;;;;;;;;;6625712;28;20529;-89
2022/11/30 06:21:11;;;;;;;46.63;24.10;;;;;;;;;;6625651;28;20163;-90
2022/11/30 06:24:21;;;;;;;83.03;42.50;;;;;;;;;;6626252;28;20168;-90
2022/11/30 06:27:31;;;;;;;55.07;31.10;;;;;;;;;;6607228;28;20183;-89
2022/11/30 06:30:42;;;;;;;23.23;14.93;;;;;;;;;;6624921;28;20238;-90
2022/11/30 06:33:55;;;;;;;23.07;14.07;;;;;;;;;;6607468;28;20257;-90
2022/11/30 06:37:05;;;;;;;18.53;12.23;;;;;;;;;;6607869;28;20212;-90
2022/11/30 06:40:16;;;;;;;21.53;13.57;;;;;;;;;;6607272;28;20187;-89
2022/11/30 06:43:26;;;;;;;19.27;11.40;;;;;;;;;;6607269;28;20188;-90
2022/11/30 06:46:36;;;;;;;45.50;25.97;;;;;;;;;;6606996;28;20180;-90
2022/11/30 06:49:48;;;;;;;25.03;16.23;;;;;;;;;;6607384;28;20180;-90
2022/11/30 06:52:58;;;;;;;19.80;12.67;;;;;;;;;;6624777;28;20532;-90
2022/11/30 06:56:09;;;;;;;15.10;10.50;;;;;;;;;;6624241;28;20215;-90
2022/11/30 06:59:19;;;;;;;19.10;12.00;;;;;;;;;;6607044;28;20306;-90
2022/11/30 07:02:29;;;;;;;17.97;11.33;;;;;;;;;;6606063;28;20241;-90
2022/11/30 07:05:42;;;;;;;12.27;9.13;;;;;;;;;;6607121;28;20187;-90
2022/11/30 07:08:52;;;;;;;12.90;9.20;;;;;;;;;;6625853;28;20174;-89
2022/11/30 07:12:03;;;;;;;16.53;12.00;;;;;;;;;;6606736;28;20179;-90
2022/11/30 07:15:14;;;;;;;20.07;12.77;;;;;;;;;;6624344;28;20214;-90
2022/11/30 07:18:24;;;;;;;20.90;12.47;;;;;;;;;;6606997;28;20179;-90
2022/11/30 07:21:34;;;;;;;18.30;12.83;;;;;;;;;;6605210;28;20207;-90
2022/11/30 07:28:14;;;;;;;19.50;12.93;;;;;;;;;;6624167;28;20745;-90
2022/11/30 07:31:29;;;;;;;17.23;11.53;;;;;;;;;;6624336;28;20227;-89
2022/11/30 07:34:39;;;;;;;25.40;18.63;;;;;;;;;;6624293;28;20219;-90
2022/11/30 07:37:49;;;;;;;17.37;12.47;;;;;;;;;;6605803;28;20178;-90
2022/11/30 07:41:00;;;;;;;21.57;12.73;;;;;;;;;;6605779;28;20180;-89
2022/11/30 07:44:10;;;;;;;20.40;13.20;;;;;;;;;;6605196;28;20176;-89
2022/11/30 07:47:20;;;;;;;16.07;11.13;;;;;;;;;;6606425;28;20175;-89
2022/11/30 07:50:31;;;;;;;15.67;10.67;;;;;;;;;;6605068;28;20176;-89
2022/11/30 07:53:41;;;;;;;16.03;10.73;;;;;;;;;;6606875;28;20198;-89
2022/11/30 07:56:52;;;;;;;15.10;9.97;;;;;;;;;;6605733;28;20203;-89
2022/11/30 08:00:02;;;;;;;19.97;11.90;;;;;;;;;;6605755;28;20186;-90
2022/11/30 08:03:12;;;;;;;15.60;10.87;;;;;;;;;;6623903;28;20175;-90
2022/11/30 08:06:24;;;;;;;14.93;10.47;;;;;;;;;;6606162;28;20187;-90
2022/11/30 08:09:34;;;;;;;24.63;16.67;;;;;;;;;;6605756;28;20222;-89
2022/11/30 08:12:45;;;;;;;18.07;12.67;;;;;;;;;;6604942;28;20178;-89
2022/11/30 08:15:59;;;;;;;22.90;15.53;;;;;;;;;;6621921;28;20253;-89
2022/11/30 08:19:10;;;;;;;19.30;12.77;;;;;;;;;;6622393;28;20214;-90
2022/11/30 08:22:20;;;;;;;18.90;12.63;;;;;;;;;;6621282;28;20262;-90
2022/11/30 08:25:31;;;;;;;17.50;11.47;;;;;;;;;;6621900;28;20590;-90
2022/11/30 08:28:42;;;;;;;14.27;10.80;;;;;;;;;;6621955;28;20171;-90
2022/11/30 08:31:53;;;;;;;17.37;10.37;;;;;;;;;;6595014;28;20215;-90
2022/11/30 08:35:04;;;;;;;12.40;8.97;;;;;;;;;;6603904;28;20653;-90
2022/11/30 08:38:14;;;;;;;17.60;11.83;;;;;;;;;;6604155;28;20183;-89
2022/11/30 08:41:25;;;;;;;14.57;10.37;;;;;;;;;;6620939;28;20187;-90
2022/11/30 08:44:35;;;;;;;14.80;10.47;;;;;;;;;;6619776;28;20603;-90
2022/11/30 08:47:45;;;;;;;14.30;10.50;;;;;;;;;;6602406;28;20174;-90
2022/11/30 08:51:03;;;;;;;15.13;10.30;;;;;;;;;;6587441;28;20191;-89
2022/11/30 08:54:13;;;;;;;15.93;10.93;;;;;;;;;;6600258;28;20176;-90
2022/11/30 08:57:25;;;;;;;11.20;8.80;;;;;;;;;;6595927;28;20227;-90
2022/11/30 09:00:35;;;;;;;15.60;10.97;;;;;;;;;;6621538;28;20168;-90
2022/11/30 09:03:46;;;;;;;10.13;6.63;;;;;;;;;;6602578;28;20637;-90
2022/11/30 09:06:58;;;;;;;15.23;10.23;;;;;;;;;;6603357;28;20188;-90
2022/11/30 09:10:08;;;;;;;11.70;8.90;;;;;;;;;;6621204;28;20176;-91
2022/11/30 09:13:18;;;;;;;14.47;10.87;;;;;;;;;;6602753;28;20229;-92
2022/11/30 09:16:29;;;;;;;16.97;11.63;;;;;;;;;;6619346;28;20211;-93
2022/11/30 09:19:39;;;;;;;18.03;12.20;;;;;;;;;;6602030;28;20646;-92
2022/11/30 09:22:49;;;;;;;13.77;10.33;;;;;;;;;;6602834;28;20187;-91
2022/11/30 09:26:01;;;;;;;13.67;7.97;;;;;;;;;;6620527;28;20184;-91
2022/11/30 09:29:12;;;;;;;10.13;7.83;;;;;;;;;;6621698;28;20226;-91
2022/11/30 09:32:23;;;;;;;11.07;8.50;;;;;;;;;;6603953;28;20690;-90
2022/11/30 09:35:33;;;;;;;14.33;9.83;;;;;;;;;;6621313;28;20219;-92
2022/11/30 09:38:45;;;;;;;20.33;12.90;;;;;;;;;;6602931;28;20225;-93
2022/11/30 09:42:05;;;;;;;17.80;12.40;;;;;;;;;;6594953;28;20176;-91
2022/11/30 09:45:22;;;;;;;15.40;10.13;;;;;;;;;;6606277;28;20184;-91
2022/11/30 09:48:47;;;;;;;13.90;10.53;;;;;;;;;;6624305;28;20233;-91
2022/11/30 09:52:02;;;;;;;19.23;12.10;;;;;;;;;;6625012;28;20206;-91
2022/11/30 09:55:16;;;;;;;21.67;13.63;;;;;;;;;;6625833;28;20199;-91
2022/11/30 09:58:33;;;;;;;21.13;14.00;;;;;;;;;;6609083;28;20572;-92
2022/11/30 10:01:44;;;;;;;16.57;11.47;;;;;;;;;;6608349;28;20180;-92
2022/11/30 10:04:54;;;;;;;21.67;12.40;;;;;;;;;;6608660;28;20186;-90
2022/11/30 10:08:12;;;;;;;18.90;12.07;;;;;;;;;;6606854;28;20175;-91
2022/11/30 10:11:44;;;;;;;24.63;15.60;;;;;;;;;;6607530;28;20234;-91
2022/11/30 10:14:57;;;;;;;23.63;15.20;;;;;;;;;;6596757;28;20215;-91
2022/11/30 10:18:21;;;;;;;17.87;12.63;;;;;;;;;;6607846;28;20183;-92
2022/11/30 10:21:50;;;;;;;17.13;11.47;;;;;;;;;;6625836;28;20164;-91
2022/11/30 10:25:16;;;;;;;18.53;12.90;;;;;;;;;;6626378;28;20233;-91
2022/11/30 10:28:48;;;;;;;17.00;12.00;;;;;;;;;;6607190;28;20180;-91
2022/11/30 10:32:00;;;;;;;17.50;10.90;;;;;;;;;;6607509;28;20662;-92
2022/11/30 10:35:28;;;;;;;25.10;13.90;;;;;;;;;;6606878;28;20234;-91
2022/11/30 10:38:41;;;;;;;22.83;14.47;;;;;;;;;;6607113;28;20283;-90
2022/11/30 10:42:12;;;;;;;28.17;17.70;;;;;;;;;;6606934;28;20625;-91
2022/11/30 10:45:23;;;;;;;18.40;13.03;;;;;;;;;;6605668;28;20536;-91
2022/11/30 10:48:39;;;;;;;22.00;13.13;;;;;;;;;;6625328;28;20225;-91
2022/11/30 10:51:51;;;;;;;17.80;12.07;;;;;;;;;;6625680;28;20182;-91
2022/11/30 10:55:02;;;;;;;24.87;17.27;;;;;;;;;;6607070;28;20288;-91
2022/11/30 10:58:21;;;;;;;28.57;18.40;;;;;;;;;;6607461;28;20242;-91
2022/11/30 11:01:39;;;;;;;20.93;14.80;;;;;;;;;;6625370;28;20536;-91
2022/11/30 11:05:06;;;;;;;22.73;15.73;;;;;;;;;;6607030;28;20261;-91
2022/11/30 11:08:18;;;;;;;25.90;16.23;;;;;;;;;;6624846;28;20157;-91
2022/11/30 11:11:33;;;;;;;26.70;18.27;;;;;;;;;;6625020;28;20168;-91
2022/11/30 11:14:43;;;;;;;24.30;16.17;;;;;;;;;;6606630;28;20218;-91
2022/11/30 11:18:11;;;;;;;18.13;11.53;;;;;;;;;;6606292;28;20195;-89
2022/11/30 11:21:22;;;;;;;21.90;14.93;;;;;;;;;;6623908;28;20168;-90
2022/11/30 11:24:33;;;;;;;16.97;10.97;;;;;;;;;;6624532;28;20497;-88
2022/11/30 11:27:50;;;;;;;16.23;10.90;;;;;;;;;;6623471;28;20171;-87
2022/11/30 11:31:14;;;;;;;24.90;14.70;;;;;;;;;;6624312;28;20227;-88
2022/11/30 11:34:34;;;;;;;25.43;15.73;;;;;;;;;;6623639;28;20349;-88
2022/11/30 11:37:49;;;;;;;28.03;17.27;;;;;;;;;;6623996;28;20546;-88
2022/11/30 11:41:01;;;;;;;23.07;15.43;;;;;;;;;;6624706;28;20254;-88
2022/11/30 11:44:11;;;;;;;28.70;17.67;;;;;;;;;;6624370;28;20218;-89
2022/11/30 11:47:24;;;;;;;23.93;15.33;;;;;;;;;;6606041;28;20578;-88
2022/11/30 11:50:35;;;;;;;26.83;17.10;;;;;;;;;;6623507;28;20164;-88
2022/11/30 11:53:49;;;;;;;22.47;13.67;;;;;;;;;;6605899;28;20172;-88
2022/11/30 11:56:59;;;;;;;22.20;13.63;;;;;;;;;;6621547;28;20195;-88
2022/11/30 12:00:13;;;;;;;22.20;14.73;;;;;;;;;;6608294;28;20203;-88
2022/11/30 12:03:32;;;;;;;29.33;19.47;;;;;;;;;;6619116;28;20202;-87
2022/11/30 12:06:43;;;;;;;21.37;14.07;;;;;;;;;;6602584;28;20306;-87
2022/11/30 12:10:02;;;;;;;29.53;17.80;;;;;;;;;;6622636;28;20174;-89
2022/11/30 12:13:17;;;;;;;19.77;12.70;;;;;;;;;;6621648;28;20197;-89
2022/11/30 12:16:36;;;;;;;22.53;15.23;;;;;;;;;;6622483;28;20542;-89
2022/11/30 12:19:46;;;;;;;21.90;13.87;;;;;;;;;;6620990;28;20202;-89
2022/11/30 12:23:03;;;;;;;28.83;18.40;;;;;;;;;;6622326;28;20164;-88
2022/11/30 12:26:20;;;;;;;26.80;16.43;;;;;;;;;;6622181;28;20164;-89
2022/11/30 12:29:44;;;;;;;39.70;25.80;;;;;;;;;;6621968;28;20255;-89
2022/11/30 12:33:08;;;;;;;25.67;16.70;;;;;;;;;;6622372;28;20307;-89
2022/11/30 12:36:34;;;;;;;31.43;19.27;;;;;;;;;;6621688;28;20298;-88
2022/11/30 12:39:45;;;;;;;25.63;16.67;;;;;;;;;;6619630;28;20179;-89
2022/11/30 12:42:58;;;;;;;28.43;17.53;;;;;;;;;;6621986;28;20207;-88
2022/11/30 12:46:13;;;;;;;26.37;16.13;;;;;;;;;;6603927;28;20172;-88
2022/11/30 12:49:26;;;;;;;26.07;16.43;;;;;;;;;;6622447;28;20494;-88
2022/11/30 12:52:53;;;;;;;32.10;19.60;;;;;;;;;;6621479;28;20271;-88
2022/11/30 12:56:06;;;;;;;26.87;18.33;;;;;;;;;;6605577;28;20203;-88
2022/11/30 12:59:18;;;;;;;22.63;13.67;;;;;;;;;;6604530;28;20191;-88
2022/11/30 13:02:43;;;;;;;24.93;15.47;;;;;;;;;;6621914;28;20183;-88
2022/11/30 13:05:56;;;;;;;22.50;15.80;;;;;;;;;;6604462;28;20660;-89
2022/11/30 13:09:10;;;;;;;23.70;15.47;;;;;;;;;;6621338;28;20232;-88
2022/11/30 13:12:21;;;;;;;20.67;14.37;;;;;;;;;;6619795;28;20254;-88
2022/11/30 13:15:34;;;;;;;24.90;14.33;;;;;;;;;;6622104;28;20785;-89
2022/11/30 13:18:45;;;;;;;10.33;6.73;;;;;;;;;;6603484;28;20614;-89
2022/11/30 13:21:58;;;;;;;19.73;13.00;;;;;;;;;;6626247;28;20176;-89
2022/11/30 13:25:19;;;;;;;17.03;11.33;;;;;;;;;;6626697;28;20217;-89
2022/11/30 13:28:35;;;;;;;17.17;11.67;;;;;;;;;;6623736;28;20184;-88
2022/11/30 13:32:05;;;;;;;18.37;12.63;;;;;;;;;;6619287;28;20330;-89
2022/11/30 13:35:28;;;;;;;15.50;10.70;;;;;;;;;;6624056;28;20305;-89
2022/11/30 13:38:38;;;;;;;16.43;11.30;;;;;;;;;;6609168;28;20203;-89
2022/11/30 13:42:08;;;;;;;17.57;11.33;;;;;;;;;;6626323;28;20172;-89
2022/11/30 13:45:31;;;;;;;19.67;12.93;;;;;;;;;;6626236;28;20194;-88
2022/11/30 13:48:42;;;;;;;22.13;13.50;;;;;;;;;;6608090;28;20191;-89
2022/11/30 13:51:52;;;;;;;19.37;11.57;;;;;;;;;;6626927;28;20590;-89
2022/11/30 13:55:22;;;;;;;18.63;12.70;;;;;;;;;;6626672;28;20195;-89
2022/11/30 13:58:33;;;;;;;19.93;13.37;;;;;;;;;;6626419;28;20267;-89
2022/11/30 14:01:43;;;;;;;20.27;13.30;;;;;;;;;;6625755;28;20630;-90
2022/11/30 14:05:14;;;;;;;25.03;15.53;;;;;;;;;;6608512;28;20179;-89
2022/11/30 14:08:24;;;;;;;26.03;15.27;;;;;;;;;;6626990;28;20258;-89
2022/11/30 14:11:36;;;;;;;17.63;12.87;;;;;;;;;;6626612;28;20529;-88
2022/11/30 14:14:47;;;;;;;19.83;13.03;;;;;;;;;;6625345;28;20183;-89
2022/11/30 14:17:57;;;;;;;20.97;14.43;;;;;;;;;;6607675;28;20183;-89
2022/11/30 14:21:25;;;;;;;18.97;14.00;;;;;;;;;;6625771;28;20525;-89
2022/11/30 14:24:35;;;;;;;18.93;12.77;;;;;;;;;;6607975;28;20179;-90
2022/11/30 14:27:47;;;;;;;19.97;13.83;;;;;;;;;;6606355;28;20175;-89
2022/11/30 14:30:58;;;;;;;23.67;13.10;;;;;;;;;;6625562;28;20254;-90
2022/11/30 14:34:31;;;;;;;19.03;12.70;;;;;;;;;;6625579;28;20568;-89
2022/11/30 14:37:55;;;;;;;19.43;14.67;;;;;;;;;;6624891;28;20211;-88
2022/11/30 14:41:07;;;;;;;19.00;14.23;;;;;;;;;;6626335;28;20526;-89
2022/11/30 14:44:17;;;;;;;21.00;15.33;;;;;;;;;;6623448;28;20180;-88
2022/11/30 14:47:32;;;;;;;15.70;10.63;;;;;;;;;;6605046;28;20223;-89
2022/11/30 14:50:45;;;;;;;17.80;12.73;;;;;;;;;;6622559;28;20172;-88
2022/11/30 14:54:00;;;;;;;18.37;12.70;;;;;;;;;;6604842;28;20186;-89
2022/11/30 14:57:17;;;;;;;21.80;14.90;;;;;;;;;;6604641;28;20662;-88
2022/11/30 15:00:28;;;;;;;20.05;13.32;;;;;;;;;;6622570;28;20422;-89
2022/11/30 15:03:38;;;;;;;19.93;14.07;;;;;;;;;;6623067;28;20395;-88
2022/11/30 15:06:49;;;;;;;17.43;10.93;;;;;;;;;;6622493;28;20646;-88
2022/11/30 15:10:09;;;;;;;22.37;15.40;;;;;;;;;;6622535;28;20160;-88
2022/11/30 15:13:19;;;;;;;27.50;18.33;;;;;;;;;;6624452;28;20565;-87
2022/11/30 15:16:30;;;;;;;26.77;18.27;;;;;;;;;;6606550;28;20329;-87
2022/11/30 15:19:45;;;;;;;23.60;16.77;;;;;;;;;;6624436;28;20198;-87
2022/11/30 15:22:57;;;;;;;14.43;9.43;;;;;;;;;;6623445;28;20184;-87
2022/11/30 15:26:13;;;;;;;15.37;10.43;;;;;;;;;;6605669;28;20259;-88
2022/11/30 15:29:30;;;;;;;16.70;11.90;;;;;;;;;;6622070;28;20180;-87
2022/11/30 15:32:42;;;;;;;23.30;14.50;;;;;;;;;;6603152;28;20231;-88
2022/11/30 15:35:53;;;;;;;19.83;12.90;;;;;;;;;;6624645;28;20210;-88
2022/11/30 15:39:13;;;;;;;17.90;13.17;;;;;;;;;;6623657;28;20191;-87
2022/11/30 15:42:39;;;;;;;23.07;15.40;;;;;;;;;;6619120;28;20276;-86
2022/11/30 15:45:54;;;;;;;20.50;14.17;;;;;;;;;;6606286;28;20184;-87
2022/11/30 15:49:06;;;;;;;20.37;12.87;;;;;;;;;;6624384;28;20255;-87
2022/11/30 15:52:16;;;;;;;16.30;11.03;;;;;;;;;;6623655;28;20233;-88
2022/11/30 15:55:38;;;;;;;20.03;14.20;;;;;;;;;;6622941;28;20238;-87
2022/11/30 15:59:18;;;;;;;18.83;11.47;;;;;;;;;;6620568;28;20267;-87
2022/11/30 16:02:35;;;;;;;18.80;12.63;;;;;;;;;;6583210;28;20218;-87
2022/11/30 16:05:56;;;;;;;21.47;14.47;;;;;;;;;;6596764;28;20187;-86
2022/11/30 16:09:18;;;;;;;20.43;13.37;;;;;;;;;;6621171;28;20622;-86
2022/11/30 16:12:28;;;;;;;21.37;13.77;;;;;;;;;;6623491;28;20190;-86
2022/11/30 16:15:42;;;;;;;117.17;37.07;;;;;;;;;;6623068;28;20195;-86
2022/11/30 16:18:53;;;;;;;31.30;18.10;;;;;;;;;;6622699;28;20171;-87
2022/11/30 16:22:03;;;;;;;19.47;11.97;;;;;;;;;;6622633;28;20183;-86
2022/11/30 16:25:14;;;;;;;21.27;14.83;;;;;;;;;;6622508;28;20267;-86
2022/11/30 16:28:25;;;;;;;21.83;14.20;;;;;;;;;;6622444;28;20225;-86
2022/11/30 16:31:37;;;;;;;19.03;13.13;;;;;;;;;;6603916;28;20220;-87
2022/11/30 16:34:47;;;;;;;24.53;14.13;;;;;;;;;;6621204;28;20200;-87
2022/11/30 16:37:58;;;;;;;23.43;14.50;;;;;;;;;;6604124;28;20561;-87
2022/11/30 16:41:26;;;;;;;29.73;17.90;;;;;;;;;;6620963;28;20176;-87
2022/11/30 16:44:36;;;;;;;32.50;18.60;;;;;;;;;;6620492;28;20191;-87
2022/11/30 16:47:47;;;;;;;23.80;13.07;;;;;;;;;;6622255;28;20524;-87
2022/11/30 16:50:58;;;;;;;23.87;15.90;;;;;;;;;;6622084;28;20171;-87
2022/11/30 16:54:12;;;;;;;20.13;12.90;;;;;;;;;;6621853;28;20178;-87
2022/11/30 16:57:23;;;;;;;12.80;8.77;;;;;;;;;;6594633;28;20631;-88
2022/11/30 17:00:33;;;;;;;18.87;12.70;;;;;;;;;;6621735;28;20198;-87
2022/11/30 17:03:45;;;;;;;23.27;15.73;;;;;;;;;;6621694;28;20172;-87
2022/11/30 17:06:56;;;;;;;18.83;11.20;;;;;;;;;;6603967;28;20210;-87
2022/11/30 17:10:07;;;;;;;19.87;12.53;;;;;;;;;;6604646;28;20176;-87
2022/11/30 17:13:17;;;;;;;28.83;18.50;;;;;;;;;;6621901;28;20199;-87
2022/11/30 17:16:27;;;;;;;15.87;9.93;;;;;;;;;;6621782;28;20202;-87
2022/11/30 17:19:38;;;;;;;17.50;11.37;;;;;;;;;;6603817;28;20182;-87
2022/11/30 17:22:48;;;;;;;16.53;12.37;;;;;;;;;;6621408;28;20182;-88
2022/11/30 17:25:58;;;;;;;19.40;12.10;;;;;;;;;;6621265;28;20183;-87
2022/11/30 17:29:09;;;;;;;16.13;11.67;;;;;;;;;;6621931;28;20178;-87
2022/11/30 17:32:19;;;;;;;15.83;11.27;;;;;;;;;;6621175;28;20230;-87
2022/11/30 17:35:29;;;;;;;14.30;10.83;;;;;;;;;;6621888;28;20214;-87
2022/11/30 17:38:41;;;;;;;13.40;10.40;;;;;;;;;;6603877;28;20210;-88
2022/11/30 17:41:51;;;;;;;21.10;12.47;;;;;;;;;;6620406;28;20168;-87
2022/11/30 17:45:01;;;;;;;19.00;11.67;;;;;;;;;;6603637;28;20611;-88
2022/11/30 17:48:13;;;;;;;34.53;16.70;;;;;;;;;;6621612;28;20196;-88
2022/11/30 17:51:23;;;;;;;37.63;23.23;;;;;;;;;;6621664;28;20168;-87
2022/11/30 17:54:33;;;;;;;19.77;12.80;;;;;;;;;;6621039;28;20590;-87
2022/11/30 17:57:44;;;;;;;17.43;8.90;;;;;;;;;;6620324;28;20191;-88
2022/11/30 18:00:54;;;;;;;17.53;10.07;;;;;;;;;;6602604;28;20537;-88
2022/11/30 18:04:04;;;;;;;46.77;22.30;;;;;;;;;;6620798;28;20241;-87
2022/11/30 18:07:15;;;;;;;25.83;15.83;;;;;;;;;;6621352;28;20167;-88
2022/11/30 18:10:25;;;;;;;33.73;18.93;;;;;;;;;;6606429;28;20194;-88
2022/11/30 18:13:36;;;;;;;32.90;15.77;;;;;;;;;;6624010;28;20171;-87
2022/11/30 18:16:46;;;;;;;18.87;13.07;;;;;;;;;;6622537;28;20673;-87
2022/11/30 18:19:56;;;;;;;21.53;14.73;;;;;;;;;;6622775;28;20186;-87
2022/11/30 18:23:07;;;;;;;36.03;22.63;;;;;;;;;;6621379;28;20178;-87
2022/11/30 18:26:18;;;;;;;28.00;18.57;;;;;;;;;;6596311;28;20176;-86
2022/11/30 18:29:29;;;;;;;25.67;17.30;;;;;;;;;;6621422;28;20172;-86
2022/11/30 18:32:39;;;;;;;35.07;21.43;;;;;;;;;;6595874;28;20627;-87
2022/11/30 18:35:49;;;;;;;34.87;22.53;;;;;;;;;;6595011;28;20227;-87
2022/11/30 18:39:00;;;;;;;16.23;10.83;;;;;;;;;;6603769;28;20171;-87
2022/11/30 18:42:10;;;;;;;19.03;13.23;;;;;;;;;;6624103;28;20618;-86
2022/11/30 18:45:20;;;;;;;20.23;14.13;;;;;;;;;;6605810;28;20172;-86
2022/11/30 18:48:30;;;;;;;28.73;17.60;;;;;;;;;;6605869;28;20171;-87